Time;durP1;ratioP1;P1;durP2;ratioP2;P2;SDS_P1;SDS_P2;PMS_P1;PMS_P2;Temp;Humidity;BMP_temperature;BMP_pressure;BME280_temperature;BME280_humidity;BME280_pressure;Samples;Min_cycle;Max_cycle;Signal;HPM_P1;HPM_P2
2024/02/03 00:00:57;;;;;;;0.40;0.40;;;;;;;10.74;100.00;102075.97;5079432;28;20027;-77
2024/02/03 00:03:22;;;;;;;0.40;0.40;;;;;;;10.76;100.00;102081.19;5112918;28;20038;-76
2024/02/03 00:05:48;;;;;;;0.30;0.30;;;;;;;10.71;100.00;102078.09;5078834;28;20130;-76
2024/02/03 00:08:14;;;;;;;0.30;0.30;;;;;;;10.71;100.00;102073.56;5079268;28;20426;-76
2024/02/03 00:10:39;;;;;;;0.30;0.30;;;;;;;10.70;100.00;102085.31;5079205;28;20041;-76
2024/02/03 00:13:05;;;;;;;0.40;0.40;;;;;;;10.68;100.00;102071.16;5096605;28;20455;-77
2024/02/03 00:15:31;;;;;;;0.50;0.50;;;;;;;10.65;100.00;102079.53;5079217;28;20464;-77
2024/02/03 00:17:56;;;;;;;0.40;0.40;;;;;;;10.64;100.00;102087.72;5079005;28;20081;-77
2024/02/03 00:20:22;;;;;;;0.40;0.40;;;;;;;10.62;100.00;102074.44;5095563;28;20052;-77
2024/02/03 00:22:51;;;;;;;0.40;0.40;;;;;;;10.55;100.00;102062.53;5095886;28;20395;-76
2024/02/03 00:25:20;;;;;;;0.30;0.30;;;;;;;10.58;100.00;102064.94;5096237;28;20027;-77
2024/02/03 00:27:46;;;;;;;0.50;0.50;;;;;;;10.56;100.00;102069.63;5095447;28;20111;-77
2024/02/03 00:30:12;;;;;;;0.30;0.30;;;;;;;10.56;100.00;102064.25;5095687;28;20513;-77
2024/02/03 00:32:38;;;;;;;0.50;0.50;;;;;;;10.56;100.00;102069.63;5078965;28;20044;-77
2024/02/03 00:35:03;;;;;;;0.40;0.40;;;;;;;10.54;100.00;102067.06;5079008;28;20038;-77
2024/02/03 00:37:29;;;;;;;0.30;0.30;;;;;;;10.52;100.00;102074.44;5078698;28;20123;-77
2024/02/03 00:39:55;;;;;;;0.40;0.40;;;;;;;10.53;100.00;102064.50;5078683;28;20444;-77
2024/02/03 00:42:21;;;;;;;0.40;0.40;;;;;;;10.52;100.00;102070.91;5096324;28;20066;-77
2024/02/03 00:44:46;;;;;;;0.40;0.40;;;;;;;10.51;100.00;102066.53;5079019;28;20472;-77
2024/02/03 00:47:12;;;;;;;0.30;0.30;;;;;;;10.47;100.00;102065.94;5095401;28;20487;-77
2024/02/03 00:49:38;;;;;;;0.40;0.40;;;;;;;10.48;100.00;102066.81;5078851;28;20406;-77
2024/02/03 00:52:04;;;;;;;0.50;0.50;;;;;;;10.47;100.00;102074.00;5078818;28;20032;-77
2024/02/03 00:54:29;;;;;;;0.40;0.40;;;;;;;10.48;100.00;102069.50;5078068;28;20440;-77
2024/02/03 00:56:56;;;;;;;0.40;0.40;;;;;;;10.46;100.00;102075.00;5095614;28;20074;-77
2024/02/03 00:59:22;;;;;;;0.43;0.43;;;;;;;10.45;100.00;102073.31;5095515;28;20124;-77
2024/02/03 01:01:48;;;;;;;0.40;0.40;;;;;;;10.42;100.00;102070.91;5078804;28;20123;-77
2024/02/03 01:04:14;;;;;;;0.38;0.38;;;;;;;10.40;100.00;102070.22;5078739;28;20035;-77
2024/02/03 01:06:40;;;;;;;0.40;0.40;;;;;;;10.41;100.00;102066.53;5078743;28;20047;-77
2024/02/03 01:09:06;;;;;;;0.40;0.40;;;;;;;10.38;100.00;102064.13;5078716;28;20039;-77
2024/02/03 01:11:33;;;;;;;0.40;0.40;;;;;;;10.36;100.00;102066.09;5078604;28;20122;-77
2024/02/03 01:13:59;;;;;;;0.40;0.40;;;;;;;10.36;100.00;102060.72;5078758;28;20039;-77
2024/02/03 01:16:25;;;;;;;0.40;0.40;;;;;;;10.35;100.00;102059.03;5095205;28;20031;-77
2024/02/03 01:18:51;;;;;;;0.40;0.40;;;;;;;10.33;100.00;102063.69;5079987;28;20032;-77
2024/02/03 01:21:22;;;;;;;0.40;0.40;;;;;;;10.31;100.00;102058.44;5082082;28;20034;-77
2024/02/03 01:23:48;;;;;;;0.40;0.40;;;;;;;10.31;100.00;102052.22;5082597;28;20028;-77
2024/02/03 01:26:15;;;;;;;0.35;0.35;;;;;;;10.28;100.00;102055.22;5081997;28;20028;-77
2024/02/03 01:28:41;;;;;;;0.40;0.40;;;;;;;10.29;100.00;102046.16;5081996;28;20108;-77
2024/02/03 01:31:08;;;;;;;0.40;0.40;;;;;;;10.26;100.00;102047.25;5081983;28;20039;-77
2024/02/03 01:33:34;;;;;;;0.40;0.40;;;;;;;10.26;100.00;102052.63;5081908;28;20054;-77
2024/02/03 01:36:00;;;;;;;0.40;0.40;;;;;;;10.22;100.00;102045.00;5081960;28;20409;-77
2024/02/03 01:38:25;;;;;;;0.40;0.40;;;;;;;10.23;100.00;102052.06;5098630;28;20135;-77
2024/02/03 01:40:51;;;;;;;0.30;0.30;;;;;;;10.22;100.00;102050.38;5081758;28;20052;-77
2024/02/03 01:43:16;;;;;;;0.40;0.40;;;;;;;10.20;100.00;102045.13;5081394;28;20084;-78
2024/02/03 01:45:42;;;;;;;0.40;0.40;;;;;;;10.21;100.00;102037.91;5082324;28;20061;-78
2024/02/03 01:48:09;;;;;;;0.45;0.45;;;;;;;10.18;100.00;102044.41;5098512;28;20494;-77
2024/02/03 01:50:34;;;;;;;0.50;0.50;;;;;;;10.18;100.00;102040.88;5081451;28;20356;-77
2024/02/03 01:53:01;;;;;;;0.40;0.40;;;;;;;10.17;100.00;102042.72;5098389;28;20093;-77
2024/02/03 01:55:28;;;;;;;0.40;0.40;;;;;;;10.15;100.00;102033.97;5098529;28;20035;-77
2024/02/03 01:58:02;;;;;;;0.40;0.40;;;;;;;10.15;100.00;102043.88;5081629;28;20036;-77
2024/02/03 02:00:28;;;;;;;0.47;0.47;;;;;;;10.17;100.00;102044.59;5098751;28;20027;-77
2024/02/03 02:02:56;;;;;;;0.40;0.40;;;;;;;10.14;100.00;102048.41;5081588;28;20522;-77
2024/02/03 02:05:24;;;;;;;0.40;0.40;;;;;;;10.15;100.00;102050.09;5097714;28;20036;-77
2024/02/03 02:07:49;;;;;;;0.40;0.40;;;;;;;10.13;100.00;102052.94;5081322;28;20048;-77
2024/02/03 02:10:16;;;;;;;0.40;0.40;;;;;;;10.15;100.00;102049.25;5114754;28;20039;-77
2024/02/03 02:12:42;;;;;;;0.40;0.40;;;;;;;10.12;100.00;102045.84;5098072;28;20038;-77
2024/02/03 02:15:09;;;;;;;0.40;0.40;;;;;;;10.13;100.00;102055.63;5114602;28;20475;-77
2024/02/03 02:17:36;;;;;;;0.40;0.40;;;;;;;10.12;100.00;102051.22;5097768;28;20074;-77
2024/02/03 02:20:07;;;;;;;0.40;0.40;;;;;;;10.11;100.00;102054.91;5097821;28;20058;-77
2024/02/03 02:22:34;;;;;;;0.40;0.40;;;;;;;10.09;100.00;102051.50;5081506;28;20562;-77
2024/02/03 02:25:00;;;;;;;0.40;0.40;;;;;;;10.12;100.00;102050.38;5114706;28;20046;-77
2024/02/03 02:27:25;;;;;;;0.40;0.40;;;;;;;10.10;100.00;102047.81;5080901;28;20031;-77
2024/02/03 02:29:51;;;;;;;0.40;0.40;;;;;;;10.12;100.00;102051.22;5081866;28;20081;-77
2024/02/03 02:32:17;;;;;;;0.50;0.50;;;;;;;10.11;100.00;102046.84;5080921;28;20448;-77
2024/02/03 02:34:43;;;;;;;0.40;0.40;;;;;;;10.12;100.00;102050.38;5097669;28;20122;-77
2024/02/03 02:37:09;;;;;;;0.40;0.40;;;;;;;10.12;100.00;102053.06;5097571;28;20043;-77
2024/02/03 02:39:35;;;;;;;0.40;0.40;;;;;;;10.15;100.00;102054.63;5080481;28;20395;-77
2024/02/03 02:42:01;;;;;;;0.50;0.50;;;;;;;10.14;100.00;102043.03;5080698;28;20383;-77
2024/02/03 02:44:26;;;;;;;0.40;0.40;;;;;;;10.12;100.00;102040.47;5080628;28;20112;-77
2024/02/03 02:46:52;;;;;;;0.40;0.40;;;;;;;10.12;100.00;102051.22;5080610;28;20039;-77
2024/02/03 02:49:17;;;;;;;0.40;0.40;;;;;;;10.11;100.00;102054.91;5080552;28;20024;-77
2024/02/03 02:51:43;;;;;;;0.40;0.40;;;;;;;10.12;100.00;102053.91;5080547;28;20036;-77
2024/02/03 02:54:09;;;;;;;0.30;0.30;;;;;;;10.10;100.00;102050.50;5080483;28;20062;-77
2024/02/03 02:56:34;;;;;;;0.40;0.40;;;;;;;10.12;100.00;102053.91;5080431;28;20114;-77
2024/02/03 02:59:00;;;;;;;0.40;0.40;;;;;;;10.12;100.00;102053.91;5080253;28;20036;-77
2024/02/03 03:01:26;;;;;;;5.40;5.05;;;;;;;10.15;100.00;102050.09;5080349;28;20032;-77
2024/02/03 03:03:55;;;;;;;0.40;0.40;;;;;;;10.14;100.00;102045.72;5080207;28;20074;-78
2024/02/03 03:06:21;;;;;;;0.40;0.40;;;;;;;10.14;100.00;102037.66;5096516;28;20463;-77
2024/02/03 03:08:46;;;;;;;0.40;0.40;;;;;;;10.16;100.00;102045.56;5080183;28;20054;-77
2024/02/03 03:11:12;;;;;;;0.30;0.30;;;;;;;10.13;100.00;102042.19;5080172;28;20035;-77
2024/02/03 03:13:41;;;;;;;0.30;0.30;;;;;;;10.13;100.00;102033.25;5080034;28;20040;-77
2024/02/03 03:16:07;;;;;;;0.43;0.43;;;;;;;10.12;100.00;102031.56;5080071;28;20039;-78
2024/02/03 03:18:32;;;;;;;0.50;0.50;;;;;;;10.09;100.00;102030.00;5079718;28;20151;-77
2024/02/03 03:21:00;;;;;;;0.40;0.40;;;;;;;10.12;100.00;102040.47;5096510;28;20030;-77
2024/02/03 03:23:25;;;;;;;0.40;0.40;;;;;;;10.16;100.00;102040.19;5096408;28;20028;-77
2024/02/03 03:25:51;;;;;;;0.32;0.32;;;;;;;10.15;100.00;102043.88;5079837;28;20028;-77
2024/02/03 03:28:17;;;;;;;0.40;0.40;;;;;;;10.15;100.00;102043.88;5096646;28;20031;-77
2024/02/03 03:30:42;;;;;;;0.40;0.40;;;;;;;10.19;100.00;102042.56;5079889;28;20063;-77
2024/02/03 03:33:08;;;;;;;0.40;0.40;;;;;;;10.20;100.00;102053.19;5079484;28;20116;-78
2024/02/03 03:35:33;;;;;;;0.43;0.43;;;;;;;10.20;100.00;102046.97;5079564;28;20031;-77
2024/02/03 03:37:59;;;;;;;0.40;0.40;;;;;;;10.21;100.00;102045.97;5079411;28;20038;-78
2024/02/03 03:40:25;;;;;;;0.40;0.40;;;;;;;10.16;100.00;102040.19;5096260;28;20067;-77
2024/02/03 03:42:50;;;;;;;0.40;0.40;;;;;;;10.19;100.00;102039.88;5079481;28;20028;-78
2024/02/03 03:45:19;;;;;;;0.45;0.45;;;;;;;10.20;100.00;102049.66;5095619;28;20126;-78
2024/02/03 03:47:44;;;;;;;0.38;0.38;;;;;;;10.17;100.00;102036.53;5096568;28;20027;-78
2024/02/03 03:50:10;;;;;;;0.50;0.50;;;;;;;10.19;100.00;102034.50;5114067;28;20081;-77
2024/02/03 03:52:36;;;;;;;0.35;0.35;;;;;;;10.20;100.00;102025.47;5079175;28;20088;-77
2024/02/03 03:55:02;;;;;;;0.40;0.40;;;;;;;10.17;100.00;102020.38;5078953;28;20039;-78
2024/02/03 03:57:27;;;;;;;0.30;0.30;;;;;;;10.19;100.00;102018.38;5079316;28;20088;-77
2024/02/03 03:59:53;;;;;;;0.40;0.40;;;;;;;10.17;100.00;102015.00;5079984;28;20031;-77
2024/02/03 04:02:19;;;;;;;0.40;0.40;;;;;;;10.15;100.00;102017.00;5079360;28;20027;-77
2024/02/03 04:04:45;;;;;;;0.40;0.40;;;;;;;10.16;100.00;102015.97;5079348;28;20126;-77
2024/02/03 04:07:11;;;;;;;0.40;0.40;;;;;;;10.16;100.00;102016.84;5096323;28;20490;-77
2024/02/03 04:09:37;;;;;;;0.40;0.40;;;;;;;10.17;100.00;102015.84;5079375;28;20043;-77
2024/02/03 04:12:03;;;;;;;0.40;0.40;;;;;;;10.12;100.00;102005.53;5079282;28;20043;-77
2024/02/03 04:14:29;;;;;;;0.40;0.40;;;;;;;10.16;100.00;102002.53;5079270;28;20041;-77
2024/02/03 04:16:54;;;;;;;0.30;0.30;;;;;;;10.15;100.00;102011.63;5095839;28;20077;-77
2024/02/03 04:19:20;;;;;;;0.40;0.40;;;;;;;10.14;100.00;102008.09;5095936;28;20036;-77
2024/02/03 04:21:46;;;;;;;0.40;0.40;;;;;;;10.16;100.00;102002.53;5079205;28;20031;-77
2024/02/03 04:24:14;;;;;;;0.40;0.40;;;;;;;10.15;100.00;102008.94;5080044;28;20023;-77
2024/02/03 04:26:40;;;;;;;0.40;0.40;;;;;;;10.16;100.00;102011.50;5095939;28;20118;-77
2024/02/03 04:29:05;;;;;;;0.40;0.40;;;;;;;10.13;100.00;102018.00;5079128;28;20046;-77
2024/02/03 04:31:31;;;;;;;0.40;0.40;;;;;;;10.11;100.00;102017.28;5078890;28;20058;-77
2024/02/03 04:33:59;;;;;;;0.40;0.40;;;;;;;10.13;100.00;102015.31;5079050;28;20364;-77
2024/02/03 04:36:25;;;;;;;0.40;0.40;;;;;;;10.12;100.00;102023.50;5096296;28;20031;-77
2024/02/03 04:38:51;;;;;;;0.40;0.40;;;;;;;10.10;100.00;102015.56;5095305;28;20024;-77
2024/02/03 04:41:24;;;;;;;0.40;0.40;;;;;;;10.10;100.00;102015.56;5095390;28;20387;-77
2024/02/03 04:43:50;;;;;;;0.40;0.40;;;;;;;10.08;100.00;102014.88;5078882;28;20133;-77
2024/02/03 04:46:16;;;;;;;0.40;0.40;;;;;;;10.09;100.00;102015.72;5078135;28;20081;-77
2024/02/03 04:48:44;;;;;;;0.40;0.40;;;;;;;10.07;100.00;102015.84;5078865;28;20039;-77
2024/02/03 04:51:10;;;;;;;0.50;0.50;;;;;;;10.07;100.00;102020.38;5079247;28;20039;-77
2024/02/03 04:53:36;;;;;;;0.40;0.40;;;;;;;10.09;100.00;102026.47;5096932;28;20027;-77
2024/02/03 04:56:02;;;;;;;0.40;0.40;;;;;;;10.10;100.00;102026.31;5082793;28;20088;-77
2024/02/03 04:58:28;;;;;;;0.40;0.40;;;;;;;10.13;100.00;102030.56;5083056;28;20047;-77
2024/02/03 05:00:57;;;;;;;0.40;0.40;;;;;;;10.15;100.00;102027.75;5099649;28;20050;-78
2024/02/03 05:03:23;;;;;;;0.45;0.45;;;;;;;10.10;100.00;102020.94;5082388;28;20479;-77
2024/02/03 05:05:48;;;;;;;0.35;0.35;;;;;;;10.10;100.00;102023.63;5099368;28;20035;-77
2024/02/03 05:08:14;;;;;;;0.40;0.40;;;;;;;10.09;100.00;102013.03;5082506;28;20031;-77
2024/02/03 05:10:40;;;;;;;0.32;0.32;;;;;;;10.16;100.00;102022.22;5098985;28;20040;-77
2024/02/03 05:13:06;;;;;;;0.40;0.40;;;;;;;10.16;100.00;102022.22;5082294;28;20383;-77
2024/02/03 05:15:31;;;;;;;0.40;0.40;;;;;;;10.16;100.00;102026.75;5082393;28;20055;-77
2024/02/03 05:17:57;;;;;;;0.40;0.40;;;;;;;10.16;100.00;102018.69;5099285;28;20055;-77
2024/02/03 05:20:22;;;;;;;0.40;0.40;;;;;;;10.15;100.00;102020.53;5098650;28;20388;-77
2024/02/03 05:22:48;;;;;;;0.40;0.40;;;;;;;10.16;100.00;102026.75;5099024;28;20382;-77
2024/02/03 05:25:17;;;;;;;0.40;0.40;;;;;;;10.13;100.00;102019.81;5082232;28;20146;-77
2024/02/03 05:27:43;;;;;;;0.40;0.40;;;;;;;10.07;100.00;102002.41;5099437;28;20382;-77
2024/02/03 05:30:09;;;;;;;0.40;0.40;;;;;;;10.09;100.00;102013.88;5082181;28;20031;-77
2024/02/03 05:32:35;;;;;;;0.52;0.52;;;;;;;10.07;100.00;102013.16;5099084;28;20028;-77
2024/02/03 05:35:13;;;;;;;0.40;0.40;;;;;;;10.07;100.00;102020.38;5098476;28;20081;-77
2024/02/03 05:37:39;;;;;;;0.50;0.50;;;;;;;10.06;100.00;102014.16;5115418;28;20027;-77
2024/02/03 05:40:05;;;;;;;0.30;0.30;;;;;;;10.06;100.00;102002.56;5098565;28;20038;-77
2024/02/03 05:42:31;;;;;;;0.50;0.50;;;;;;;10.04;100.00;102008.06;5115623;28;20031;-77
2024/02/03 05:44:58;;;;;;;0.50;0.50;;;;;;;10.05;100.00;102009.75;5099039;28;20031;-77
2024/02/03 05:47:24;;;;;;;0.40;0.40;;;;;;;10.04;100.00;102000.00;5081934;28;20049;-77
2024/02/03 05:49:50;;;;;;;0.40;0.40;;;;;;;10.02;100.00;102004.69;5115451;28;20395;-77
2024/02/03 05:52:15;;;;;;;0.40;0.40;;;;;;;10.04;100.00;102004.53;5081775;28;20047;-76
2024/02/03 05:54:41;;;;;;;0.50;0.50;;;;;;;10.03;100.00;102008.19;5082219;28;20103;-77
2024/02/03 05:57:10;;;;;;;0.30;0.30;;;;;;;10.01;100.00;102008.38;5081362;28;20395;-77
2024/02/03 05:59:35;;;;;;;0.40;0.40;;;;;;;10.00;100.00;102009.38;5081295;28;20471;-77
2024/02/03 06:02:01;;;;;;;0.40;0.40;;;;;;;9.97;100.00;102015.00;5081516;28;20089;-77
2024/02/03 06:04:27;;;;;;;0.40;0.40;;;;;;;9.99;100.00;102014.88;5081032;28;20042;-77
2024/02/03 06:06:52;;;;;;;0.50;0.50;;;;;;;9.99;100.00;102018.41;5082005;28;20044;-77
2024/02/03 06:09:18;;;;;;;0.43;0.43;;;;;;;9.99;100.00;102014.88;5081435;28;20467;-77
2024/02/03 06:11:44;;;;;;;0.40;0.40;;;;;;;9.98;100.00;102008.66;5098191;28;20448;-77
2024/02/03 06:14:09;;;;;;;0.50;0.50;;;;;;;10.00;100.00;102008.50;5098065;28;20036;-77
2024/02/03 06:16:35;;;;;;;0.50;0.50;;;;;;;9.98;100.00;102008.66;5097948;28;20027;-77
2024/02/03 06:19:01;;;;;;;0.40;0.40;;;;;;;9.99;100.00;102009.50;5081539;28;20380;-77
2024/02/03 06:21:27;;;;;;;0.30;0.30;;;;;;;9.97;100.00;102006.94;5081928;28;20366;-77
2024/02/03 06:23:53;;;;;;;0.40;0.40;;;;;;;9.99;100.00;102017.56;5098102;28;20043;-77
2024/02/03 06:26:19;;;;;;;0.50;0.50;;;;;;;9.99;100.00;102017.56;5081112;28;20031;-77
2024/02/03 06:28:44;;;;;;;0.47;0.47;;;;;;;9.99;100.00;102018.41;5097331;28;20024;-77
2024/02/03 06:31:11;;;;;;;0.40;0.40;;;;;;;10.01;100.00;102000.31;5081001;28;20077;-77
2024/02/03 06:33:37;;;;;;;0.50;0.50;;;;;;;10.00;100.00;102006.69;5080870;28;20040;-77
2024/02/03 06:36:02;;;;;;;0.40;0.40;;;;;;;10.00;100.00;102004.00;5080819;28;20075;-78
2024/02/03 06:38:28;;;;;;;0.47;0.47;;;;;;;10.02;100.00;102007.38;5115629;28;20112;-77
2024/02/03 06:40:55;;;;;;;0.40;0.40;;;;;;;10.02;100.00;102012.75;5114369;28;20489;-77
2024/02/03 06:43:20;;;;;;;0.40;0.40;;;;;;;10.03;100.00;102008.19;5080357;28;20395;-77
2024/02/03 06:45:46;;;;;;;0.40;0.40;;;;;;;10.00;100.00;102000.44;5097535;28;20034;-77
2024/02/03 06:48:12;;;;;;;0.43;0.43;;;;;;;9.96;100.00;101999.88;5097303;28;20379;-77
2024/02/03 06:50:37;;;;;;;0.40;0.40;;;;;;;9.96;100.00;102002.56;5114201;28;20030;-78
2024/02/03 06:53:03;;;;;;;0.40;0.40;;;;;;;9.98;100.00;102005.97;5080763;28;20031;-77
2024/02/03 06:55:29;;;;;;;0.40;0.40;;;;;;;9.99;100.00;102004.97;5098028;28;20075;-77
2024/02/03 06:57:54;;;;;;;0.40;0.40;;;;;;;10.01;100.00;102007.53;5097316;28;20463;-77
2024/02/03 07:00:20;;;;;;;0.40;0.40;;;;;;;9.99;100.00;102004.97;5080108;28;20027;-77
2024/02/03 07:02:46;;;;;;;0.40;0.40;;;;;;;9.97;100.00;102003.41;5080088;28;20038;-77
2024/02/03 07:05:11;;;;;;;0.40;0.40;;;;;;;9.97;100.00;102000.72;5080346;28;20039;-77
2024/02/03 07:07:37;;;;;;;0.40;0.40;;;;;;;9.95;100.00;102006.25;5114246;28;20028;-77
2024/02/03 07:10:03;;;;;;;0.40;0.40;;;;;;;9.94;100.00;102007.22;5080276;28;20368;-77
2024/02/03 07:12:29;;;;;;;0.40;0.40;;;;;;;9.93;100.00;102002.84;5080303;28;20050;-77
2024/02/03 07:14:54;;;;;;;0.40;0.40;;;;;;;9.91;100.00;102007.50;5096562;28;20024;-77
2024/02/03 07:17:21;;;;;;;0.40;0.40;;;;;;;9.90;100.00;102001.28;5079137;28;20035;-77
2024/02/03 07:19:47;;;;;;;0.35;0.35;;;;;;;9.90;100.00;102003.97;5097099;28;20070;-77
2024/02/03 07:22:12;;;;;;;0.40;0.40;;;;;;;9.89;100.00;101996.06;5079673;28;20485;-77
2024/02/03 07:24:38;;;;;;;0.43;0.43;;;;;;;9.88;100.00;102005.94;5079606;28;20478;-77
2024/02/03 07:27:05;;;;;;;0.40;0.40;;;;;;;9.86;100.00;102002.56;5079820;28;20459;-77
2024/02/03 07:29:31;;;;;;;0.40;0.40;;;;;;;9.81;100.00;101999.44;5079697;28;20028;-77
2024/02/03 07:32:03;;;;;;;0.40;0.40;;;;;;;9.76;100.00;102003.53;5080379;28;20032;-77
2024/02/03 07:34:29;;;;;;;0.40;0.40;;;;;;;9.65;100.00;102005.34;5096621;28;20043;-77
2024/02/03 07:36:55;;;;;;;0.50;0.50;;;;;;;9.57;100.00;102018.63;5113346;28;20031;-77
2024/02/03 07:39:21;;;;;;;0.40;0.40;;;;;;;9.52;100.00;102015.50;5079399;28;20032;-76
2024/02/03 07:41:47;;;;;;;0.50;0.50;;;;;;;9.48;100.00;102024.00;5096078;28;20081;-77
2024/02/03 07:44:13;;;;;;;0.40;0.40;;;;;;;9.45;100.00;102027.81;5079622;28;20028;-77
2024/02/03 07:46:39;;;;;;;0.50;0.50;;;;;;;9.42;100.00;102025.38;5096330;28;20032;-77
2024/02/03 07:49:05;;;;;;;0.38;0.38;;;;;;;9.41;100.00;102026.38;5079515;28;20540;-77
2024/02/03 07:51:31;;;;;;;0.40;0.40;;;;;;;9.40;100.00;102022.00;5096668;28;20039;-77
2024/02/03 07:53:57;;;;;;;0.40;0.40;;;;;;;9.38;100.00;102022.13;5095879;28;20034;-77
2024/02/03 07:56:23;;;;;;;0.40;0.40;;;;;;;9.32;100.00;102022.69;5079404;28;20031;-76
2024/02/03 07:58:49;;;;;;;0.40;0.40;;;;;;;9.22;100.00;102025.31;5079304;28;20104;-77
2024/02/03 08:01:15;;;;;;;0.40;0.40;;;;;;;9.11;100.00;102025.44;5079317;28;20042;-77
2024/02/03 08:03:41;;;;;;;0.40;0.40;;;;;;;9.02;100.00;102028.91;5096326;28;20038;-77
2024/02/03 08:06:07;;;;;;;0.40;0.40;;;;;;;8.96;100.00;102026.78;5078867;28;20039;-77
2024/02/03 08:08:32;;;;;;;0.40;0.40;;;;;;;8.94;100.00;102021.53;5079344;28;20490;-77
2024/02/03 08:10:58;;;;;;;0.40;0.40;;;;;;;8.92;100.00;102033.41;5095906;28;20073;-77
2024/02/03 08:13:24;;;;;;;0.40;0.40;;;;;;;8.87;100.00;102031.13;5079350;28;20040;-77
2024/02/03 08:15:49;;;;;;;0.40;0.40;;;;;;;8.84;100.00;102035.88;5079287;28;20119;-77
2024/02/03 08:18:15;;;;;;;0.40;0.40;;;;;;;8.83;100.00;102042.22;5079037;28;20078;-77
2024/02/03 08:20:41;;;;;;;0.40;0.40;;;;;;;8.82;100.00;102045.91;5112476;28;20535;-77
2024/02/03 08:23:07;;;;;;;0.40;0.40;;;;;;;8.80;100.00;102046.03;5079193;28;20130;-77
2024/02/03 08:25:33;;;;;;;0.47;0.47;;;;;;;8.75;100.00;102043.75;5079106;28;20062;-77
2024/02/03 08:27:59;;;;;;;0.40;0.40;;;;;;;8.71;100.00;102050.38;5114628;28;20110;-77
2024/02/03 08:30:25;;;;;;;0.47;0.47;;;;;;;8.73;100.00;102059.13;5099951;28;20184;-77
2024/02/03 08:32:50;;;;;;;0.40;0.40;;;;;;;8.73;100.00;102063.63;5082700;28;20035;-77
2024/02/03 08:35:16;;;;;;;0.50;0.50;;;;;;;8.72;100.00;102059.25;5099790;28;20034;-78
2024/02/03 08:37:41;;;;;;;0.40;0.40;;;;;;;8.70;100.00;102056.69;5082909;28;20042;-77
2024/02/03 08:40:08;;;;;;;0.50;0.50;;;;;;;8.70;100.00;102071.94;5099365;28;20034;-77
2024/02/03 08:42:34;;;;;;;0.40;0.40;;;;;;;8.69;100.00;102070.25;5099653;28;20035;-77
2024/02/03 08:44:59;;;;;;;0.40;0.40;;;;;;;8.67;100.00;102062.31;5099876;28;20386;-77
2024/02/03 08:47:25;;;;;;;0.40;0.40;;;;;;;8.65;100.00;102058.91;5082880;28;20046;-77
2024/02/03 08:49:52;;;;;;;0.45;0.45;;;;;;;8.70;100.00;102067.41;5082924;28;20032;-77
2024/02/03 08:52:18;;;;;;;0.40;0.40;;;;;;;8.73;100.00;102072.53;5099076;28;20035;-77
2024/02/03 08:54:44;;;;;;;0.40;0.40;;;;;;;8.75;100.00;102070.56;5099646;28;20035;-77
2024/02/03 08:57:10;;;;;;;0.40;0.40;;;;;;;8.77;100.00;102078.47;5099721;28;20027;-77
2024/02/03 08:59:35;;;;;;;0.40;0.40;;;;;;;8.77;100.00;102073.13;5082420;28;20038;-77
2024/02/03 09:02:01;;;;;;;0.50;0.50;;;;;;;8.77;100.00;102070.44;5082631;28;20031;-77
2024/02/03 09:04:27;;;;;;;0.40;0.40;;;;;;;8.79;100.00;102077.38;5082571;28;20028;-77
2024/02/03 09:06:53;;;;;;;0.50;0.50;;;;;;;8.77;100.00;102076.66;5099359;28;20461;-77
2024/02/03 09:09:21;;;;;;;0.40;0.40;;;;;;;8.78;100.00;102082.84;5099453;28;20035;-77
2024/02/03 09:11:47;;;;;;;0.40;0.40;;;;;;;8.75;100.00;102083.97;5099269;28;20042;-77
2024/02/03 09:14:13;;;;;;;0.40;0.40;;;;;;;8.77;100.00;102099.94;5115826;28;20487;-77
2024/02/03 09:16:38;;;;;;;0.45;0.45;;;;;;;8.80;100.00;102095.16;5081609;28;20035;-77
2024/02/03 09:19:04;;;;;;;0.40;0.40;;;;;;;8.77;100.00;102103.47;5082600;28;20031;-77
2024/02/03 09:21:30;;;;;;;0.40;0.40;;;;;;;8.79;100.00;102098.81;5082364;28;20046;-77
2024/02/03 09:23:56;;;;;;;0.47;0.47;;;;;;;8.80;100.00;102097.00;5082161;28;20463;-77
2024/02/03 09:26:21;;;;;;;0.40;0.40;;;;;;;8.84;100.00;102100.25;5116145;28;20023;-77
2024/02/03 09:28:47;;;;;;;0.40;0.40;;;;;;;8.89;100.00;102108.75;5081977;28;20058;-77
2024/02/03 09:31:19;;;;;;;0.50;0.50;;;;;;;8.95;100.00;102102.88;5081957;28;20067;-77
2024/02/03 09:33:46;;;;;;;0.40;0.40;;;;;;;8.97;100.00;102100.88;5065123;28;20044;-77
2024/02/03 09:36:11;;;;;;;0.47;0.47;;;;;;;8.99;100.00;102112.34;5081928;28;20042;-77
2024/02/03 09:38:37;;;;;;;0.40;0.40;;;;;;;9.03;100.00;102109.28;5080945;28;20031;-77
2024/02/03 09:41:04;;;;;;;0.40;0.40;;;;;;;9.01;100.00;102111.22;5098151;28;20031;-77
2024/02/03 09:43:30;;;;;;;0.50;0.50;;;;;;;9.02;100.00;102114.75;5098978;28;20115;-77
2024/02/03 09:45:58;;;;;;;0.50;0.50;;;;;;;9.13;100.00;102124.56;5115442;28;20468;-77
2024/02/03 09:48:23;;;;;;;0.47;0.47;;;;;;;9.24;100.00;102119.97;5081886;28;20390;-77
2024/02/03 09:50:50;;;;;;;0.50;0.50;;;;;;;9.37;100.00;102127.81;5097992;28;20036;-77
2024/02/03 09:53:16;;;;;;;0.45;0.45;;;;;;;9.37;100.00;102133.19;5081499;28;20134;-77
2024/02/03 09:55:41;;;;;;;0.43;0.43;;;;;;;9.37;100.00;102126.97;5080933;28;20138;-77
2024/02/03 09:58:07;;;;;;;0.50;0.50;;;;;;;9.42;100.00;102127.38;5114621;28;20028;-77
2024/02/03 10:00:35;;;;;;;0.40;0.40;;;;;;;9.49;100.00;102122.34;5081063;28;20027;-77
2024/02/03 10:03:01;;;;;;;0.50;0.50;;;;;;;9.44;100.00;102109.31;5081447;28;20047;-77
2024/02/03 10:05:29;;;;;;;0.40;0.40;;;;;;;9.33;100.00;102106.72;5098163;28;20023;-77
2024/02/03 10:08:02;;;;;;;0.50;0.50;;;;;;;9.41;100.00;102123.00;5081433;28;20118;-77
2024/02/03 10:10:29;;;;;;;0.40;0.40;;;;;;;9.31;100.00;102119.44;5082024;28;20142;-77
2024/02/03 10:13:05;;;;;;;0.40;0.40;;;;;;;9.31;100.00;102116.75;5097888;28;20063;-77
2024/02/03 10:15:31;;;;;;;0.50;0.50;;;;;;;9.40;100.00;102115.97;5098021;28;20035;-77
2024/02/03 10:17:59;;;;;;;0.50;0.50;;;;;;;9.45;100.00;102132.50;5097775;28;20364;-77
2024/02/03 10:20:26;;;;;;;0.50;0.50;;;;;;;9.38;100.00;102121.44;5115172;28;20088;-77
2024/02/03 10:22:52;;;;;;;0.50;0.50;;;;;;;9.42;100.00;102133.63;5080994;28;20532;-77
2024/02/03 10:25:25;;;;;;;0.50;0.50;;;;;;;9.43;100.00;102134.47;5080965;28;20032;-77
2024/02/03 10:28:03;;;;;;;0.50;0.50;;;;;;;9.38;100.00;102115.25;5097923;28;20474;-77
2024/02/03 10:30:34;;;;;;;0.50;0.50;;;;;;;9.39;100.00;102116.91;5098077;28;20063;-77
2024/02/03 10:33:01;;;;;;;0.40;0.40;;;;;;;9.40;100.00;102135.59;5114825;28;20535;-77
2024/02/03 10:35:28;;;;;;;0.40;0.40;;;;;;;9.33;100.00;102134.41;5097273;28;20028;-77
2024/02/03 10:37:54;;;;;;;0.40;0.40;;;;;;;9.43;100.00;102147.91;5114518;28;20031;-77
2024/02/03 10:40:22;;;;;;;0.40;0.40;;;;;;;9.42;100.00;102140.81;5080400;28;20039;-77
2024/02/03 10:42:50;;;;;;;0.50;0.50;;;;;;;9.43;100.00;102151.44;5080344;28;20482;-77
2024/02/03 10:45:16;;;;;;;0.60;0.60;;;;;;;9.58;100.00;102148.38;5114407;28;20086;-77
2024/02/03 10:47:43;;;;;;;0.40;0.40;;;;;;;9.78;100.00;102152.84;5097321;28;20110;-77
2024/02/03 10:50:12;;;;;;;0.40;0.40;;;;;;;9.94;100.00;102152.31;5096585;28;20110;-77
2024/02/03 10:52:39;;;;;;;0.60;0.60;;;;;;;10.10;100.00;102147.25;5079939;28;20038;-77
2024/02/03 10:55:06;;;;;;;0.50;0.50;;;;;;;10.21;100.00;102153.50;5080450;28;20035;-77
2024/02/03 10:57:32;;;;;;;0.50;0.50;;;;;;;10.01;100.00;102148.09;5081298;28;20028;-78
2024/02/03 11:00:07;;;;;;;0.50;0.50;;;;;;;9.76;100.00;102154.78;5080185;28;20491;-77
2024/02/03 11:02:33;;;;;;;0.40;0.40;;;;;;;9.61;100.00;102158.88;5097837;28;20111;-77
2024/02/03 11:05:00;;;;;;;0.40;0.40;;;;;;;9.53;100.00;102162.22;5097238;28;20055;-77
2024/02/03 11:07:26;;;;;;;0.40;0.40;;;;;;;9.48;100.00;102158.25;5096878;28;20031;-77
2024/02/03 11:09:54;;;;;;;0.47;0.47;;;;;;;9.53;100.00;102156.84;5097026;28;20036;-77
2024/02/03 11:12:19;;;;;;;0.50;0.50;;;;;;;9.60;100.00;102166.03;5113867;28;20040;-77
2024/02/03 11:14:47;;;;;;;0.50;0.50;;;;;;;9.66;100.00;102162.84;5097191;28;20027;-77
2024/02/03 11:17:13;;;;;;;0.45;0.45;;;;;;;9.62;100.00;102171.28;5063524;28;20039;-77